createdAt,value
2022-09-22T00:01:26.993Z,63.80
2022-09-22T00:04:00.373Z,63.80
2022-09-22T00:06:48.759Z,63.90
2022-09-22T00:09:20.504Z,63.80
2022-09-22T00:11:51.360Z,63.90
2022-09-22T00:14:21.393Z,64.00
2022-09-22T00:16:53.072Z,63.20
2022-09-22T00:19:27.464Z,63.80
2022-09-22T00:21:54.573Z,64.00
2022-09-22T00:24:23.331Z,64.00
2022-09-22T00:26:56.582Z,64.10
2022-09-22T00:29:25.814Z,64.10
2022-09-22T00:31:53.500Z,64.10
2022-09-22T00:34:24.998Z,64.00
2022-09-22T00:36:52.245Z,64.10
2022-09-22T00:39:22.728Z,64.10
2022-09-22T00:41:52.398Z,64.20
2022-09-22T00:44:27.765Z,64.20
2022-09-22T00:47:26.114Z,64.20
2022-09-22T00:50:22.671Z,64.20
2022-09-22T00:53:13.173Z,64.10
2022-09-22T00:55:50.882Z,64.00
2022-09-22T00:58:25.805Z,64.20
2022-09-22T01:00:52.846Z,64.30
2022-09-22T01:03:27.618Z,64.40
2022-09-22T01:06:02.897Z,64.50
2022-09-22T01:08:31.456Z,64.50
2022-09-22T01:10:59.585Z,64.60
2022-09-22T01:13:49.987Z,65.10
2022-09-22T01:16:48.481Z,64.60
2022-09-22T01:19:54.961Z,64.40
2022-09-22T01:22:46.817Z,64.50
2022-09-22T01:25:52.855Z,64.50
2022-09-22T01:28:42.849Z,64.50
2022-09-22T01:31:34.098Z,64.60
2022-09-22T01:35:07.916Z,64.60
2022-09-22T01:38:09.233Z,64.50
2022-09-22T01:40:51.143Z,64.50
2022-09-22T01:43:53.879Z,64.70
2022-09-22T01:46:35.414Z,64.70
2022-09-22T01:49:08.545Z,64.80
2022-09-22T01:51:48.892Z,64.90
2022-09-22T01:54:30.851Z,65.00
2022-09-22T01:57:12.616Z,65.00
2022-09-22T01:59:43.766Z,65.10
2022-09-22T02:02:22.509Z,65.10
2022-09-22T02:04:56.629Z,65.10
2022-09-22T02:07:33.878Z,65.10
2022-09-22T02:10:08.609Z,65.10
2022-09-22T02:12:37.070Z,65.10
2022-09-22T02:15:26.998Z,65.10
2022-09-22T02:18:05.733Z,65.20
2022-09-22T02:20:34.420Z,65.20
2022-09-22T02:23:01.337Z,65.30
2022-09-22T02:25:28.749Z,65.40
2022-09-22T02:27:58.128Z,65.40
2022-09-22T02:30:26.700Z,65.40
2022-09-22T02:32:57.531Z,65.40
2022-09-22T02:35:30.473Z,65.40
2022-09-22T02:38:21.921Z,65.30
2022-09-22T02:41:10.532Z,65.10
2022-09-22T02:44:01.853Z,65.20
2022-09-22T02:46:45.271Z,65.40
2022-09-22T02:49:20.318Z,65.20
2022-09-22T02:51:50.334Z,65.30
2022-09-22T02:54:17.148Z,65.50
2022-09-22T02:56:44.529Z,65.60
2022-09-22T02:59:11.500Z,65.60
2022-09-22T03:01:38.917Z,65.60
2022-09-22T03:04:06.417Z,65.70
2022-09-22T03:06:33.327Z,65.70
2022-09-22T03:09:00.320Z,65.70
2022-09-22T03:11:27.236Z,65.70
2022-09-22T03:13:54.624Z,65.70
2022-09-22T03:16:21.528Z,65.70
2022-09-22T03:18:48.440Z,65.70
2022-09-22T03:21:15.208Z,65.70
2022-09-22T03:23:42.042Z,65.80
2022-09-22T03:26:11.254Z,65.80
2022-09-22T03:28:38.047Z,65.80
2022-09-22T03:31:05.014Z,65.80
2022-09-22T03:33:31.763Z,65.80
2022-09-22T03:35:58.613Z,65.90
2022-09-22T03:38:25.403Z,66.00
2022-09-22T03:40:53.002Z,66.10
2022-09-22T03:43:20.944Z,66.20
2022-09-22T03:45:47.891Z,66.20
2022-09-22T03:48:14.888Z,66.30
2022-09-22T03:50:41.720Z,66.30
2022-09-22T03:53:08.526Z,66.30
2022-09-22T03:55:35.309Z,66.30
2022-09-22T03:58:03.371Z,66.40
2022-09-22T04:00:30.371Z,66.40
2022-09-22T04:02:58.714Z,66.90
2022-09-22T04:05:26.746Z,66.60
2022-09-22T04:07:53.842Z,66.60
2022-09-22T04:10:21.391Z,66.60
2022-09-22T04:12:48.500Z,66.60
2022-09-22T04:15:15.761Z,66.60
2022-09-22T04:17:42.595Z,66.50
2022-09-22T04:20:11.832Z,66.60
2022-09-22T04:22:39.455Z,66.60
2022-09-22T04:25:07.769Z,66.70
2022-09-22T04:27:34.568Z,66.80
2022-09-22T04:30:01.566Z,66.80
2022-09-22T04:32:28.374Z,66.90
2022-09-22T04:34:55.242Z,66.90
2022-09-22T04:37:22.059Z,66.90
2022-09-22T04:39:48.933Z,66.90
2022-09-22T04:42:15.921Z,66.90
2022-09-22T04:44:42.707Z,66.90
2022-09-22T04:47:09.463Z,67.00
2022-09-22T04:49:36.243Z,67.00
2022-09-22T04:52:04.188Z,67.00
2022-09-22T04:54:31.727Z,67.00
2022-09-22T04:56:58.698Z,67.00
2022-09-22T04:59:25.678Z,67.10
2022-09-22T05:01:52.460Z,67.10
2022-09-22T05:04:19.267Z,67.10
2022-09-22T05:06:46.050Z,67.10
2022-09-22T05:09:13.170Z,67.20
2022-09-22T05:11:39.963Z,67.20
2022-09-22T05:14:06.744Z,67.30
2022-09-22T05:16:33.934Z,67.30
2022-09-22T05:19:00.889Z,67.40
2022-09-22T05:21:28.850Z,67.30
2022-09-22T05:23:55.938Z,67.30
2022-09-22T05:26:22.899Z,67.30
2022-09-22T05:28:51.233Z,67.40
2022-09-22T05:31:18.134Z,67.30
2022-09-22T05:33:45.092Z,67.40
2022-09-22T05:36:11.922Z,67.50
2022-09-22T05:38:38.710Z,67.60
2022-09-22T05:41:05.815Z,67.70
2022-09-22T05:43:32.668Z,67.70
2022-09-22T05:45:59.555Z,67.80
2022-09-22T05:48:30.340Z,68.00
2022-09-22T05:50:58.280Z,68.00
2022-09-22T05:53:25.121Z,68.10
2022-09-22T05:55:51.907Z,68.20
2022-09-22T05:58:18.704Z,68.20
2022-09-22T06:00:46.786Z,68.40
2022-09-22T06:03:13.740Z,68.50
2022-09-22T06:05:40.631Z,68.70
2022-09-22T06:08:07.805Z,68.80
2022-09-22T06:10:37.169Z,68.80
2022-09-22T06:13:07.549Z,68.80
2022-09-22T06:15:36.087Z,69.00
2022-09-22T06:18:13.141Z,69.00
2022-09-22T06:20:43.123Z,69.20
2022-09-22T06:23:12.608Z,69.30
2022-09-22T06:25:39.591Z,69.40
2022-09-22T06:28:11.832Z,69.50
2022-09-22T06:30:40.269Z,69.60
2022-09-22T06:33:11.456Z,69.70
2022-09-22T06:35:42.949Z,69.70
2022-09-22T06:38:15.369Z,69.80
2022-09-22T06:40:43.401Z,69.90
2022-09-22T06:43:22.984Z,70.00
2022-09-22T06:45:53.050Z,69.90
2022-09-22T06:48:24.116Z,70.10
2022-09-22T06:50:54.608Z,70.20
2022-09-22T06:53:24.471Z,70.30
2022-09-22T06:55:54.070Z,70.40
2022-09-22T06:58:22.266Z,70.40
2022-09-22T07:00:49.384Z,70.50
2022-09-22T07:03:23.074Z,70.50
2022-09-22T07:06:01.957Z,70.40
2022-09-22T07:08:34.056Z,70.10
2022-09-22T07:11:10.351Z,70.60
2022-09-22T07:13:41.232Z,70.50
2022-09-22T07:16:10.405Z,70.70
2022-09-22T07:18:44.137Z,69.20
2022-09-22T07:21:14.674Z,70.40
2022-09-22T07:23:43.484Z,70.70
2022-09-22T07:26:18.050Z,70.80
2022-09-22T07:28:51.472Z,70.40
2022-09-22T07:31:18.627Z,71.30
2022-09-22T07:33:46.666Z,72.00
2022-09-22T07:36:18.663Z,72.90
2022-09-22T07:38:51.515Z,73.30
2022-09-22T07:41:28.034Z,73.20
2022-09-22T07:44:19.837Z,74.10
2022-09-22T07:46:47.501Z,72.20
2022-09-22T07:49:19.512Z,74.30
2022-09-22T07:51:46.482Z,73.60
2022-09-22T07:54:13.383Z,72.70
2022-09-22T07:56:44.832Z,71.50
2022-09-22T07:59:16.735Z,68.90
2022-09-22T08:01:47.409Z,68.70
2022-09-22T08:04:16.698Z,67.40
2022-09-22T08:06:48.794Z,65.00
2022-09-22T08:09:16.283Z,67.00
2022-09-22T08:11:48.697Z,66.10
2022-09-22T08:14:17.421Z,65.50
2022-09-22T08:16:45.947Z,64.30
2022-09-22T08:19:14.491Z,63.60
2022-09-22T08:21:51.651Z,62.40
2022-09-22T08:24:23.383Z,57.30
2022-09-22T08:26:53.373Z,60.30
2022-09-22T08:29:21.058Z,59.80
2022-09-22T08:31:49.416Z,59.20
2022-09-22T08:34:17.806Z,59.30
2022-09-22T08:36:46.530Z,59.30
2022-09-22T08:39:14.268Z,58.80
2022-09-22T08:42:08.469Z,58.10
2022-09-22T08:44:46.638Z,53.30
2022-09-22T08:47:44.344Z,55.70
2022-09-22T08:51:03.374Z,54.30
2022-09-22T08:53:35.433Z,53.20
2022-09-22T08:56:39.309Z,57.10
2022-09-22T08:59:14.729Z,51.60
2022-09-22T09:02:19.495Z,52.00
2022-09-22T09:05:28.411Z,51.10
2022-09-22T09:08:34.445Z,50.60
2022-09-22T09:11:44.876Z,50.20
2022-09-22T09:14:44.966Z,49.00
2022-09-22T09:17:25.565Z,49.00
2022-09-22T09:19:56.748Z,48.80
2022-09-22T09:22:33.587Z,51.90
2022-09-22T09:25:44.415Z,50.00
2022-09-22T09:29:05.891Z,52.40
2022-09-22T09:31:46.305Z,46.40
2022-09-22T09:34:19.633Z,51.80
2022-09-22T09:37:07.864Z,48.00
2022-09-22T09:39:40.974Z,49.70
2022-09-22T09:42:25.524Z,47.30
2022-09-22T09:44:57.570Z,45.40
2022-09-22T09:48:01.629Z,49.40
2022-09-22T09:50:32.242Z,43.70
2022-09-22T09:53:00.256Z,48.20
2022-09-22T09:55:27.814Z,46.80
2022-09-22T09:58:32.305Z,47.10
2022-09-22T10:01:00.711Z,42.80
2022-09-22T10:03:33.217Z,47.30
2022-09-22T10:06:09.282Z,46.30
2022-09-22T10:08:49.341Z,46.00
2022-09-22T10:11:16.542Z,41.90
2022-09-22T10:13:44.336Z,45.30
2022-09-22T10:16:31.584Z,44.10
2022-09-22T10:19:17.513Z,39.80
2022-09-22T10:21:44.348Z,41.70
2022-09-22T10:24:31.812Z,43.50
2022-09-22T10:27:02.398Z,37.30
2022-09-22T10:29:32.127Z,43.30
2022-09-22T10:32:16.803Z,43.00
2022-09-22T10:34:51.777Z,38.10
2022-09-22T10:37:27.743Z,39.00
2022-09-22T10:40:02.330Z,37.50
2022-09-22T10:42:45.384Z,37.60
2022-09-22T10:45:19.271Z,36.90
2022-09-22T10:48:03.985Z,39.90
2022-09-22T10:50:59.173Z,36.00
2022-09-22T10:53:53.350Z,38.80
2022-09-22T10:56:43.593Z,36.10
2022-09-22T10:59:41.239Z,35.60
2022-09-22T11:02:22.937Z,35.20
2022-09-22T11:05:51.170Z,35.90
2022-09-22T11:08:39.331Z,34.40
2022-09-22T11:11:44.144Z,38.10
2022-09-22T11:14:51.962Z,35.90
2022-09-22T11:17:25.074Z,37.20
2022-09-22T11:20:19.857Z,39.80
2022-09-22T11:23:04.346Z,38.60
2022-09-22T11:26:02.276Z,37.70
2022-09-22T11:28:57.057Z,38.90
2022-09-22T11:31:47.135Z,40.00
2022-09-22T11:34:30.166Z,38.50
2022-09-22T11:37:25.686Z,41.40
2022-09-22T11:40:34.178Z,41.20
2022-09-22T11:43:19.885Z,40.20
2022-09-22T11:46:03.725Z,42.70
2022-09-22T11:49:18.110Z,41.40
2022-09-22T11:52:11.731Z,43.60
2022-09-22T11:55:20.522Z,41.60
2022-09-22T11:57:53.204Z,41.60
2022-09-22T12:00:21.939Z,44.10
2022-09-22T12:03:12.077Z,44.60
2022-09-22T12:06:03.295Z,43.20
2022-09-22T12:08:38.296Z,45.30
2022-09-22T12:11:08.822Z,44.80
2022-09-22T12:13:44.272Z,44.50
2022-09-22T12:16:25.550Z,43.60
2022-09-22T12:19:42.289Z,43.00
2022-09-22T12:22:33.589Z,42.60
2022-09-22T12:25:01.386Z,44.70
2022-09-22T12:27:30.189Z,46.00
2022-09-22T12:30:04.475Z,45.80
2022-09-22T12:32:42.954Z,45.90
2022-09-22T12:35:37.246Z,43.50
2022-09-22T12:38:04.934Z,44.20
2022-09-22T12:40:37.798Z,46.60
2022-09-22T12:43:05.930Z,46.60
2022-09-22T12:45:40.855Z,47.00
2022-09-22T12:48:18.153Z,46.30
2022-09-22T12:50:46.336Z,44.80
2022-09-22T12:53:22.416Z,46.50
2022-09-22T12:55:54.816Z,45.80
2022-09-22T12:58:22.183Z,46.10
2022-09-22T13:00:53.387Z,47.30
2022-09-22T13:03:26.074Z,46.90
2022-09-22T13:05:59.555Z,45.60
2022-09-22T13:08:49.114Z,47.00
2022-09-22T13:11:15.915Z,44.50
2022-09-22T13:13:50.872Z,47.40
2022-09-22T13:16:17.887Z,45.70
2022-09-22T13:18:52.029Z,47.20
2022-09-22T13:21:28.985Z,45.20
2022-09-22T13:23:59.177Z,46.80
2022-09-22T13:26:41.003Z,47.10
2022-09-22T13:29:21.086Z,46.80
2022-09-22T13:31:55.512Z,45.70
2022-09-22T13:34:35.435Z,47.30
2022-09-22T13:37:13.279Z,45.50
2022-09-22T13:39:49.693Z,48.00
2022-09-22T13:42:32.620Z,47.80
2022-09-22T13:45:19.371Z,44.70
2022-09-22T13:47:48.817Z,46.30
2022-09-22T13:50:22.070Z,45.30
2022-09-22T13:52:51.761Z,45.10
2022-09-22T13:55:34.851Z,44.60
2022-09-22T13:58:03.544Z,43.80
2022-09-22T14:01:09.088Z,45.40
2022-09-22T14:03:38.167Z,42.10
2022-09-22T14:06:12.573Z,44.10
2022-09-22T14:08:40.369Z,46.40
2022-09-22T14:11:15.241Z,46.80
2022-09-22T14:13:42.160Z,44.20
2022-09-22T14:16:48.774Z,47.40
2022-09-22T14:19:24.011Z,42.70
2022-09-22T14:22:04.861Z,48.80
2022-09-22T14:24:37.016Z,47.00
2022-09-22T14:27:07.576Z,46.80
2022-09-22T14:29:40.828Z,44.80
2022-09-22T14:32:35.023Z,40.40
2022-09-22T14:35:07.697Z,38.80
2022-09-22T14:37:41.795Z,43.30
2022-09-22T14:40:30.647Z,42.00
2022-09-22T14:43:00.645Z,40.40
2022-09-22T14:45:29.413Z,42.90
2022-09-22T14:48:20.533Z,42.30
2022-09-22T14:51:01.674Z,39.00
2022-09-22T14:53:33.429Z,38.10
2022-09-22T14:56:08.572Z,41.90
2022-09-22T14:58:42.212Z,37.50
2022-09-22T15:01:42.580Z,35.70
2022-09-22T15:04:26.417Z,36.00
2022-09-22T15:06:57.068Z,35.80
2022-09-22T15:09:41.460Z,38.10
2022-09-22T15:12:46.181Z,35.40
2022-09-22T15:15:21.844Z,34.90
2022-09-22T15:18:15.965Z,37.20
2022-09-22T15:20:58.629Z,34.80
2022-09-22T15:23:42.672Z,33.70
2022-09-22T15:26:24.727Z,34.00
2022-09-22T15:28:55.160Z,34.40
2022-09-22T15:31:26.484Z,36.50
2022-09-22T15:34:01.406Z,37.30
2022-09-22T15:36:32.039Z,36.00
2022-09-22T15:39:07.199Z,35.50
2022-09-22T15:41:34.791Z,35.00
2022-09-22T15:44:03.060Z,35.20
2022-09-22T15:46:35.384Z,34.90
2022-09-22T15:49:23.266Z,33.60
2022-09-22T15:51:50.597Z,31.80
2022-09-22T15:54:21.737Z,34.90
2022-09-22T15:56:52.555Z,34.40
2022-09-22T15:59:24.503Z,34.40
2022-09-22T16:01:55.827Z,34.20
2022-09-22T16:04:23.615Z,34.50
2022-09-22T16:06:58.562Z,34.20
2022-09-22T16:09:25.381Z,32.20
2022-09-22T16:11:52.228Z,34.30
2022-09-22T16:14:19.543Z,33.80
2022-09-22T16:16:46.334Z,33.50
2022-09-22T16:19:13.227Z,33.70
2022-09-22T16:21:49.770Z,33.50
2022-09-22T16:24:16.786Z,33.00
2022-09-22T16:26:43.943Z,32.70
2022-09-22T16:29:11.247Z,31.60
2022-09-22T16:31:38.099Z,31.10
2022-09-22T16:34:06.753Z,30.90
2022-09-22T16:36:36.034Z,31.20
2022-09-22T16:39:04.376Z,31.40
2022-09-22T16:41:36.284Z,31.80
2022-09-22T16:44:04.823Z,31.50
2022-09-22T16:46:37.870Z,32.80
2022-09-22T16:49:16.373Z,33.30
2022-09-22T16:51:48.829Z,32.70
2022-09-22T16:54:17.717Z,34.50
2022-09-22T16:56:49.102Z,35.10
2022-09-22T16:59:18.869Z,35.50
2022-09-22T17:01:46.343Z,36.00
2022-09-22T17:04:16.390Z,36.50
2022-09-22T17:06:43.967Z,37.10
2022-09-22T17:09:12.483Z,37.50
2022-09-22T17:11:43.660Z,38.10
2022-09-22T17:14:13.989Z,38.40
2022-09-22T17:16:42.984Z,39.00
2022-09-22T17:19:17.361Z,39.50
2022-09-22T17:21:46.602Z,39.70
2022-09-22T17:24:14.837Z,40.20
2022-09-22T17:26:48.840Z,40.50
2022-09-22T17:29:24.742Z,40.80
2022-09-22T17:31:59.449Z,41.40
2022-09-22T17:34:32.894Z,41.50
2022-09-22T17:37:00.970Z,42.10
2022-09-22T17:39:29.923Z,42.40
2022-09-22T17:41:56.909Z,42.70
2022-09-22T17:44:24.907Z,43.00
2022-09-22T17:47:11.505Z,43.30
2022-09-22T17:49:58.599Z,43.60
2022-09-22T17:52:29.292Z,43.90
2022-09-22T17:55:07.293Z,44.30
2022-09-22T17:57:45.594Z,44.60
2022-09-22T18:00:22.237Z,45.00
2022-09-22T18:02:52.611Z,45.30
2022-09-22T18:05:26.600Z,45.50
2022-09-22T18:07:57.879Z,45.80
2022-09-22T18:10:33.875Z,46.10
2022-09-22T18:13:02.319Z,46.10
2022-09-22T18:15:29.463Z,46.50
2022-09-22T18:17:57.941Z,46.60
2022-09-22T18:20:26.122Z,46.90
2022-09-22T18:22:53.676Z,47.10
2022-09-22T18:25:23.535Z,47.40
2022-09-22T18:27:50.865Z,47.70
2022-09-22T18:30:19.245Z,48.00
2022-09-22T18:32:47.915Z,48.10
2022-09-22T18:35:15.097Z,48.40
2022-09-22T18:37:42.214Z,48.70
2022-09-22T18:40:12.385Z,48.80
2022-09-22T18:42:41.372Z,49.00
2022-09-22T18:45:10.020Z,49.00
2022-09-22T18:47:39.596Z,49.30
2022-09-22T18:50:07.237Z,49.50
2022-09-22T18:52:34.490Z,49.70
2022-09-22T18:55:01.926Z,49.80
2022-09-22T18:57:28.850Z,50.10
2022-09-22T18:59:59.816Z,50.10
2022-09-22T19:02:26.864Z,50.30
2022-09-22T19:04:53.867Z,49.00
2022-09-22T19:07:42.535Z,50.10
2022-09-22T19:10:23.362Z,50.40
2022-09-22T19:12:50.758Z,51.20
2022-09-22T19:15:19.049Z,50.70
2022-09-22T19:17:49.419Z,50.90
2022-09-22T19:20:23.678Z,51.20
2022-09-22T19:22:52.350Z,51.40
2022-09-22T19:25:21.436Z,51.50
2022-09-22T19:27:49.623Z,51.70
2022-09-22T19:30:20.583Z,51.80
2022-09-22T19:32:50.332Z,52.00
2022-09-22T19:35:17.276Z,51.90
2022-09-22T19:37:44.112Z,52.10
2022-09-22T19:40:18.887Z,52.20
2022-09-22T19:42:47.270Z,52.30
2022-09-22T19:45:14.717Z,52.50
2022-09-22T19:47:41.727Z,52.50
2022-09-22T19:50:09.285Z,53.10
2022-09-22T19:52:37.713Z,52.80
2022-09-22T19:55:11.431Z,52.80
2022-09-22T19:57:41.673Z,53.20
2022-09-22T20:00:18.065Z,53.00
2022-09-22T20:02:45.484Z,53.40
2022-09-22T20:05:21.987Z,53.20
2022-09-22T20:07:49.646Z,53.90
2022-09-22T20:10:19.161Z,53.40
2022-09-22T20:12:46.406Z,53.60
2022-09-22T20:15:15.971Z,53.60
2022-09-22T20:17:46.186Z,53.70
2022-09-22T20:20:16.988Z,54.00
2022-09-22T20:22:47.141Z,54.00
2022-09-22T20:25:29.518Z,54.00
2022-09-22T20:27:57.527Z,54.70
2022-09-22T20:30:25.462Z,54.20
2022-09-22T20:32:52.833Z,54.20
2022-09-22T20:35:21.816Z,54.40
2022-09-22T20:37:49.463Z,54.50
2022-09-22T20:40:39.213Z,54.60
2022-09-22T20:43:06.414Z,54.60
2022-09-22T20:45:33.659Z,54.60
2022-09-22T20:48:00.645Z,54.90
2022-09-22T20:50:27.621Z,55.00
2022-09-22T20:52:55.410Z,55.10
2022-09-22T20:55:22.575Z,55.20
2022-09-22T20:57:49.395Z,55.20
2022-09-22T21:00:16.585Z,55.30
2022-09-22T21:02:43.602Z,55.40
2022-09-22T21:05:10.582Z,55.50
2022-09-22T21:07:37.404Z,55.60
2022-09-22T21:10:23.214Z,55.70
2022-09-22T21:12:54.880Z,55.80
2022-09-22T21:15:22.643Z,55.80
2022-09-22T21:17:49.910Z,55.80
2022-09-22T21:20:17.194Z,55.90
2022-09-22T21:22:44.410Z,56.50
2022-09-22T21:25:11.199Z,56.00
2022-09-22T21:27:38.066Z,56.10
2022-09-22T21:30:05.669Z,56.20
2022-09-22T21:32:33.243Z,56.30
2022-09-22T21:35:00.399Z,56.30
2022-09-22T21:37:27.611Z,56.30
2022-09-22T21:39:54.395Z,56.30
2022-09-22T21:42:21.486Z,56.30
2022-09-22T21:44:48.603Z,56.40
2022-09-22T21:47:15.408Z,56.50
2022-09-22T21:49:42.194Z,56.50
2022-09-22T21:52:09.022Z,56.60
2022-09-22T21:54:35.866Z,56.70
2022-09-22T21:57:02.705Z,56.70
2022-09-22T21:59:29.737Z,56.90
2022-09-22T22:01:56.577Z,56.90
2022-09-22T22:04:23.474Z,57.00
2022-09-22T22:06:50.572Z,57.00
2022-09-22T22:09:23.213Z,57.20
2022-09-22T22:11:55.500Z,57.50
2022-09-22T22:14:25.698Z,57.40
2022-09-22T22:16:55.498Z,57.40
2022-09-22T22:19:26.758Z,57.40
2022-09-22T22:21:54.823Z,57.40
2022-09-22T22:24:28.681Z,57.50
2022-09-22T22:27:02.367Z,57.60
2022-09-22T22:29:34.682Z,57.60
2022-09-22T22:32:03.820Z,57.60
2022-09-22T22:34:30.718Z,57.60
2022-09-22T22:37:00.521Z,57.60
2022-09-22T22:39:27.594Z,58.00
2022-09-22T22:41:57.142Z,57.80
2022-09-22T22:44:23.959Z,57.80
2022-09-22T22:46:50.918Z,57.80
2022-09-22T22:49:18.340Z,57.80
2022-09-22T22:51:45.202Z,57.90
2022-09-22T22:54:13.289Z,57.90
2022-09-22T22:56:43.239Z,58.00
2022-09-22T22:59:12.001Z,58.20
2022-09-22T23:01:40.408Z,58.20
2022-09-22T23:04:10.640Z,58.30
2022-09-22T23:06:43.930Z,58.40
2022-09-22T23:09:15.970Z,58.50
2022-09-22T23:11:45.804Z,58.50
2022-09-22T23:14:15.600Z,58.50
2022-09-22T23:16:46.481Z,58.50
2022-09-22T23:19:17.998Z,58.50
2022-09-22T23:21:46.047Z,58.50
2022-09-22T23:24:19.024Z,58.40
2022-09-22T23:26:46.720Z,58.60
2022-09-22T23:29:13.998Z,58.50
2022-09-22T23:31:40.872Z,58.60
2022-09-22T23:34:07.848Z,58.60
2022-09-22T23:36:34.758Z,58.70
2022-09-22T23:39:05.905Z,58.70
2022-09-22T23:41:35.735Z,58.80
2022-09-22T23:44:05.816Z,58.80
2022-09-22T23:46:33.934Z,58.70
2022-09-22T23:49:01.194Z,58.70
2022-09-22T23:51:28.593Z,58.80
2022-09-22T23:53:56.158Z,58.90
2022-09-22T23:56:23.566Z,58.90
2022-09-22T23:58:51.638Z,58.90
